createdAt,value
2023-01-30T00:00:26.825Z,0.04
2023-01-30T00:04:28.258Z,-0.02
2023-01-30T00:08:29.743Z,-0.07
2023-01-30T00:12:31.211Z,-0.13
2023-01-30T00:16:32.857Z,-0.13
2023-01-30T00:20:34.594Z,-0.20
2023-01-30T00:24:36.048Z,-0.03
2023-01-30T00:28:38.146Z,-0.10
2023-01-30T00:32:39.640Z,-0.19
2023-01-30T00:36:41.153Z,-0.24
2023-01-30T00:40:43.709Z,-0.24
2023-01-30T00:45:03.600Z,-0.23
2023-01-30T00:49:05.047Z,-0.21
2023-01-30T00:53:06.493Z,-0.33
2023-01-30T00:57:08.138Z,-0.30
2023-01-30T01:01:09.619Z,-0.20
2023-01-30T01:05:11.078Z,-0.27
2023-01-30T01:09:12.633Z,-0.22
2023-01-30T01:13:14.109Z,-0.15
2023-01-30T01:17:15.548Z,-0.13
2023-01-30T01:21:19.314Z,-0.18
2023-01-30T01:25:21.711Z,0.00
2023-01-30T01:29:23.228Z,-0.07
2023-01-30T01:33:29.222Z,-0.15
2023-01-30T01:37:30.851Z,-0.23
2023-01-30T01:41:32.313Z,-0.27
2023-01-30T01:45:33.925Z,-0.22
2023-01-30T01:49:37.067Z,-0.21
2023-01-30T01:53:47.232Z,-0.20
2023-01-30T01:57:54.855Z,-0.22
2023-01-30T02:02:00.931Z,-0.07
2023-01-30T02:06:03.659Z,-0.17
2023-01-30T02:10:08.492Z,-0.10
2023-01-30T02:14:12.175Z,-0.10
2023-01-30T02:18:15.776Z,-0.19
2023-01-30T02:22:54.719Z,-0.34
2023-01-30T02:27:13.550Z,-0.33
2023-01-30T02:31:25.597Z,-0.22
2023-01-30T02:35:35.905Z,-0.34
2023-01-30T02:40:10.915Z,0.01
2023-01-30T02:44:24.296Z,-0.11
2023-01-30T02:48:36.461Z,-0.12
2023-01-30T02:52:39.850Z,-0.05
2023-01-30T02:56:48.632Z,-0.40
2023-01-30T03:01:20.632Z,-0.39
2023-01-30T03:05:43.146Z,-0.44
2023-01-30T03:09:59.755Z,-0.40
2023-01-30T03:14:38.263Z,-0.46
2023-01-30T03:18:43.611Z,-0.34
2023-01-30T03:22:45.074Z,-0.22
2023-01-30T03:26:59.137Z,-0.19
2023-01-30T03:31:00.727Z,-0.06
2023-01-30T03:35:02.230Z,-0.06
2023-01-30T03:39:03.988Z,-0.12
2023-01-30T03:43:05.442Z,-0.04
2023-01-30T03:47:06.891Z,0.06
2023-01-30T03:51:08.347Z,0.16
2023-01-30T03:55:10.775Z,0.15
2023-01-30T03:59:12.492Z,0.13
2023-01-30T04:03:15.660Z,0.01
2023-01-30T04:07:17.699Z,0.17
2023-01-30T04:11:19.252Z,0.11
2023-01-30T04:15:20.885Z,0.25
2023-01-30T04:19:22.414Z,0.27
2023-01-30T04:23:23.893Z,0.35
2023-01-30T04:27:25.330Z,0.43
2023-01-30T04:31:26.835Z,0.52
2023-01-30T04:35:28.251Z,0.55
2023-01-30T04:39:29.697Z,0.66
2023-01-30T04:43:32.309Z,0.63
2023-01-30T04:47:33.756Z,0.73
2023-01-30T04:51:35.233Z,0.67
2023-01-30T04:55:37.467Z,0.73
2023-01-30T04:59:38.928Z,0.71
2023-01-30T05:03:40.531Z,0.69
2023-01-30T05:07:41.988Z,0.54
2023-01-30T05:11:43.504Z,0.57
2023-01-30T05:15:45.208Z,0.42
2023-01-30T05:19:46.671Z,0.40
2023-01-30T05:23:48.435Z,0.38
2023-01-30T05:27:49.872Z,0.16
2023-01-30T05:31:51.359Z,0.04
2023-01-30T05:35:52.893Z,0.04
2023-01-30T05:39:54.329Z,-0.04
2023-01-30T05:43:55.743Z,-0.08
2023-01-30T05:48:01.272Z,0.01
2023-01-30T05:52:03.240Z,-0.01
2023-01-30T05:56:05.618Z,0.09
2023-01-30T06:00:07.783Z,-0.01
2023-01-30T06:04:09.237Z,0.13
2023-01-30T06:08:12.572Z,0.12
2023-01-30T06:12:14.044Z,0.19
2023-01-30T06:16:18.026Z,0.26
2023-01-30T06:20:19.843Z,0.36
2023-01-30T06:24:21.282Z,0.28
2023-01-30T06:28:24.144Z,0.37
2023-01-30T06:32:25.552Z,0.52
2023-01-30T06:36:27.013Z,0.51
2023-01-30T06:40:28.483Z,0.51
2023-01-30T06:44:30.063Z,0.61
2023-01-30T06:48:31.569Z,0.55
2023-01-30T06:52:32.991Z,0.73
2023-01-30T06:56:34.518Z,0.69
2023-01-30T07:00:39.577Z,0.78
2023-01-30T07:04:41.563Z,0.77
2023-01-30T07:08:44.333Z,0.85
2023-01-30T07:12:46.530Z,0.92
2023-01-30T07:16:47.944Z,1.05
2023-01-30T07:20:49.938Z,1.08
2023-01-30T07:24:51.439Z,1.15
2023-01-30T07:28:52.889Z,1.12
2023-01-30T07:32:57.774Z,1.20
2023-01-30T07:36:59.704Z,1.20
2023-01-30T07:41:01.181Z,1.31
2023-01-30T07:45:02.624Z,1.36
2023-01-30T07:49:05.198Z,1.31
2023-01-30T07:53:09.063Z,1.43
2023-01-30T07:57:10.528Z,1.53
2023-01-30T08:01:12.076Z,1.42
2023-01-30T08:05:13.580Z,1.43
2023-01-30T08:09:15.060Z,1.49
2023-01-30T08:13:16.814Z,1.46
2023-01-30T08:17:18.278Z,1.46
2023-01-30T08:21:19.759Z,1.53
2023-01-30T08:25:22.186Z,1.61
2023-01-30T08:29:23.764Z,1.70
2023-01-30T08:33:25.484Z,1.86
2023-01-30T08:37:26.998Z,1.80
2023-01-30T08:41:28.422Z,1.92
2023-01-30T08:45:30.196Z,1.89
2023-01-30T08:49:31.627Z,1.99
2023-01-30T08:53:33.393Z,2.15
2023-01-30T08:57:35.320Z,2.19
2023-01-30T09:01:38.241Z,2.44
2023-01-30T09:05:39.675Z,2.83
2023-01-30T09:09:41.142Z,3.09
2023-01-30T09:13:43.586Z,3.18
2023-01-30T09:17:45.197Z,3.43
2023-01-30T09:21:48.499Z,3.44
2023-01-30T09:25:49.921Z,3.48
2023-01-30T09:29:51.483Z,3.52
2023-01-30T09:33:52.962Z,3.64
2023-01-30T09:37:54.459Z,3.72
2023-01-30T09:42:17.848Z,3.73
2023-01-30T09:46:40.558Z,3.85
2023-01-30T09:50:55.377Z,3.91
2023-01-30T09:55:19.482Z,3.95
2023-01-30T09:59:30.434Z,4.06
2023-01-30T10:03:42.312Z,4.09
2023-01-30T10:08:06.761Z,4.19
2023-01-30T10:12:31.679Z,4.13
2023-01-30T10:16:45.626Z,4.22
2023-01-30T10:21:03.195Z,4.15
2023-01-30T10:25:18.620Z,4.35
2023-01-30T10:29:27.078Z,4.66
2023-01-30T10:33:50.520Z,4.89
2023-01-30T10:38:21.732Z,5.02
2023-01-30T10:42:44.510Z,5.11
2023-01-30T10:47:17.151Z,4.96
2023-01-30T10:51:28.222Z,4.80
2023-01-30T10:55:38.144Z,4.67
2023-01-30T10:59:59.468Z,4.77
2023-01-30T11:04:12.792Z,4.73
2023-01-30T11:08:34.882Z,4.68
2023-01-30T11:12:36.304Z,4.58
2023-01-30T11:16:45.069Z,4.54
2023-01-30T11:21:01.951Z,4.65
2023-01-30T11:25:24.127Z,4.68
2023-01-30T11:29:31.704Z,4.70
2023-01-30T11:33:36.392Z,4.75
2023-01-30T11:37:40.503Z,4.83
2023-01-30T11:42:04.952Z,4.71
2023-01-30T11:46:09.254Z,4.84
2023-01-30T11:50:20.894Z,4.97
2023-01-30T11:54:35.581Z,5.18
2023-01-30T11:58:40.726Z,5.51
2023-01-30T12:02:45.056Z,5.97
2023-01-30T12:06:46.573Z,6.29
2023-01-30T12:11:01.396Z,6.10
2023-01-30T12:15:23.285Z,5.48
2023-01-30T12:20:14.303Z,5.34
2023-01-30T12:24:40.217Z,5.87
2023-01-30T12:28:41.615Z,5.79
2023-01-30T12:32:44.316Z,5.93
2023-01-30T12:36:57.414Z,5.54
2023-01-30T12:41:40.639Z,5.15
2023-01-30T12:46:00.834Z,5.24
2023-01-30T12:50:21.140Z,5.58
2023-01-30T12:54:48.885Z,5.58
2023-01-30T12:59:48.954Z,5.60
2023-01-30T13:04:56.555Z,6.17
2023-01-30T13:09:06.108Z,5.85
2023-01-30T13:13:18.236Z,5.64
2023-01-30T13:17:59.932Z,5.54
2023-01-30T13:22:26.061Z,5.49
2023-01-30T13:26:34.226Z,5.39
2023-01-30T13:30:36.159Z,5.30
2023-01-30T13:34:47.836Z,5.28
2023-01-30T13:39:10.525Z,5.38
2023-01-30T13:43:30.282Z,5.22
2023-01-30T13:47:56.662Z,5.24
2023-01-30T13:52:08.904Z,4.85
2023-01-30T13:56:40.168Z,4.53
2023-01-30T14:00:53.387Z,4.36
2023-01-30T14:04:56.469Z,4.32
2023-01-30T14:09:01.310Z,4.26
2023-01-30T14:13:06.202Z,4.00
2023-01-30T14:17:17.545Z,3.51
2023-01-30T14:21:24.985Z,3.23
2023-01-30T14:25:29.258Z,3.04
2023-01-30T14:29:42.430Z,2.72
2023-01-30T14:33:51.613Z,2.69
2023-01-30T14:38:13.301Z,2.46
2023-01-30T14:42:32.965Z,2.47
2023-01-30T14:46:42.224Z,2.65
2023-01-30T14:51:17.849Z,2.82
2023-01-30T14:55:23.460Z,2.65
2023-01-30T15:00:02.661Z,2.84
2023-01-30T15:04:16.261Z,2.82
2023-01-30T15:08:26.430Z,2.74
2023-01-30T15:13:02.636Z,2.78
2023-01-30T15:17:30.113Z,2.79
2023-01-30T15:22:04.211Z,2.82
2023-01-30T15:26:30.659Z,2.87
2023-01-30T15:30:43.086Z,2.97
2023-01-30T15:34:52.272Z,3.06
2023-01-30T15:39:16.450Z,2.98
2023-01-30T15:43:23.683Z,2.90
2023-01-30T15:47:52.393Z,2.98
2023-01-30T15:51:54.006Z,3.08
2023-01-30T15:55:55.681Z,3.10
2023-01-30T15:59:58.482Z,3.27
2023-01-30T16:04:00.368Z,3.44
2023-01-30T16:08:17.904Z,3.41
2023-01-30T16:12:27.459Z,3.40
2023-01-30T16:16:29.944Z,3.35
2023-01-30T16:20:43.725Z,3.42
2023-01-30T16:24:54.515Z,3.45
2023-01-30T16:29:18.127Z,3.48
2023-01-30T16:33:19.535Z,3.39
2023-01-30T16:37:20.945Z,3.39
2023-01-30T16:41:34.367Z,3.39
2023-01-30T16:45:35.818Z,3.34
2023-01-30T16:49:37.219Z,3.29
2023-01-30T16:54:00.530Z,3.38
2023-01-30T16:58:04.477Z,3.35
2023-01-30T17:02:07.270Z,3.26
2023-01-30T17:06:19.171Z,3.34
2023-01-30T17:10:39.222Z,3.16
2023-01-30T17:14:40.935Z,3.19
2023-01-30T17:18:42.437Z,3.30
2023-01-30T17:22:48.449Z,3.06
2023-01-30T17:26:53.511Z,3.08
2023-01-30T17:30:55.258Z,3.12
2023-01-30T17:34:58.751Z,3.17
2023-01-30T17:39:00.313Z,3.25
2023-01-30T17:43:02.109Z,3.33
2023-01-30T17:47:03.683Z,3.42
2023-01-30T17:51:05.409Z,3.54
2023-01-30T17:55:07.766Z,3.66
2023-01-30T17:59:14.770Z,3.70
2023-01-30T18:03:16.325Z,3.74
2023-01-30T18:07:17.970Z,3.91
2023-01-30T18:11:20.996Z,3.89
2023-01-30T18:15:23.043Z,4.01
2023-01-30T18:19:24.758Z,4.03
2023-01-30T18:23:26.415Z,4.14
2023-01-30T18:27:28.089Z,4.16
2023-01-30T18:31:30.753Z,4.25
2023-01-30T18:35:32.340Z,4.34
2023-01-30T18:39:34.867Z,4.29
2023-01-30T18:43:36.570Z,4.26
2023-01-30T18:47:38.236Z,4.36
2023-01-30T18:51:40.461Z,4.39
2023-01-30T18:55:49.441Z,4.54
2023-01-30T18:59:52.010Z,4.48
2023-01-30T19:03:58.317Z,4.50
2023-01-30T19:07:59.748Z,4.47
2023-01-30T19:12:19.855Z,4.45
2023-01-30T19:16:23.723Z,4.44
2023-01-30T19:20:26.302Z,4.36
2023-01-30T19:24:28.124Z,4.32
2023-01-30T19:28:31.289Z,4.33
2023-01-30T19:32:32.956Z,4.31
2023-01-30T19:36:36.209Z,4.25
2023-01-30T19:40:45.087Z,4.16
2023-01-30T19:44:46.679Z,4.27
2023-01-30T19:48:49.407Z,4.31
2023-01-30T19:52:54.048Z,4.31
2023-01-30T19:56:55.651Z,4.25
2023-01-30T20:01:09.788Z,4.11
2023-01-30T20:05:11.570Z,4.04
2023-01-30T20:09:16.046Z,4.05
2023-01-30T20:13:17.520Z,4.07
2023-01-30T20:17:18.964Z,4.11
2023-01-30T20:21:21.537Z,3.92
2023-01-30T20:25:23.078Z,4.07
2023-01-30T20:29:24.492Z,4.07
2023-01-30T20:33:26.771Z,4.06
2023-01-30T20:37:28.602Z,4.07
2023-01-30T20:41:32.430Z,4.06
2023-01-30T20:45:33.924Z,3.95
2023-01-30T20:49:35.389Z,4.00
2023-01-30T20:53:45.671Z,3.95
2023-01-30T20:57:47.127Z,3.76
2023-01-30T21:01:48.885Z,3.97
2023-01-30T21:06:00.119Z,3.84
2023-01-30T21:10:01.563Z,3.87
2023-01-30T21:14:04.181Z,3.85
2023-01-30T21:18:05.873Z,3.89
2023-01-30T21:22:10.477Z,3.92
2023-01-30T21:26:13.246Z,3.76
2023-01-30T21:30:14.792Z,3.83
2023-01-30T21:34:16.470Z,3.77
2023-01-30T21:38:36.771Z,3.56
2023-01-30T21:42:56.677Z,3.46
2023-01-30T21:46:58.406Z,3.42
2023-01-30T21:51:09.768Z,3.43
2023-01-30T21:55:11.226Z,3.45
2023-01-30T21:59:13.392Z,3.44
2023-01-30T22:03:14.826Z,3.45
2023-01-30T22:07:16.316Z,3.34
2023-01-30T22:11:20.287Z,3.13
2023-01-30T22:15:22.628Z,3.22
2023-01-30T22:19:24.074Z,3.10
2023-01-30T22:23:30.859Z,3.07
2023-01-30T22:27:32.446Z,2.99
2023-01-30T22:31:36.360Z,2.95
2023-01-30T22:35:38.361Z,3.01
2023-01-30T22:39:40.867Z,2.96
2023-01-30T22:43:55.644Z,2.90
2023-01-30T22:47:57.137Z,3.02
2023-01-30T22:51:58.616Z,2.94
2023-01-30T22:56:02.185Z,2.84
2023-01-30T23:00:04.979Z,2.83
2023-01-30T23:04:06.681Z,2.87
2023-01-30T23:08:08.280Z,2.71
2023-01-30T23:12:28.144Z,2.74
2023-01-30T23:16:32.777Z,2.84
2023-01-30T23:20:34.221Z,2.79
2023-01-30T23:24:35.796Z,2.76
2023-01-30T23:28:38.315Z,2.90
2023-01-30T23:32:40.342Z,2.84
2023-01-30T23:36:42.307Z,2.86
2023-01-30T23:40:44.302Z,2.83
2023-01-30T23:44:45.713Z,2.86
2023-01-30T23:48:50.208Z,2.86
2023-01-30T23:52:51.640Z,2.69
2023-01-30T23:56:54.180Z,2.80
